createdAt,value
2023-04-14T00:00:24.951Z,8.40
2023-04-14T00:01:58.106Z,8.40
2023-04-14T00:03:31.352Z,8.50
2023-04-14T00:05:06.810Z,8.50
2023-04-14T00:06:39.959Z,8.40
2023-04-14T00:08:13.013Z,8.50
2023-04-14T00:09:45.202Z,8.40
2023-04-14T00:11:18.274Z,8.40
2023-04-14T00:12:52.051Z,8.40
2023-04-14T00:14:25.309Z,8.40
2023-04-14T00:15:58.462Z,8.50
2023-04-14T00:17:31.683Z,8.40
2023-04-14T00:19:04.819Z,8.40
2023-04-14T00:20:39.271Z,8.40
2023-04-14T00:22:12.346Z,8.50
2023-04-14T00:23:45.405Z,8.50
2023-04-14T00:25:18.630Z,8.40
2023-04-14T00:26:50.735Z,8.50
2023-04-14T00:28:23.795Z,8.50
2023-04-14T00:29:56.856Z,8.50
2023-04-14T00:31:29.018Z,8.50
2023-04-14T00:33:02.158Z,8.50
2023-04-14T00:34:36.863Z,8.50
2023-04-14T00:36:12.287Z,8.50
2023-04-14T00:37:45.399Z,8.50
2023-04-14T00:39:17.545Z,8.50
2023-04-14T00:40:50.674Z,8.50
2023-04-14T00:42:24.042Z,8.50
2023-04-14T00:43:59.051Z,8.50
2023-04-14T00:45:32.267Z,8.50
2023-04-14T00:47:06.004Z,8.40
2023-04-14T00:48:39.193Z,8.30
2023-04-14T00:50:12.886Z,8.40
2023-04-14T00:51:48.290Z,8.30
2023-04-14T00:53:21.901Z,8.30
2023-04-14T00:54:56.380Z,8.30
2023-04-14T00:56:29.728Z,8.30
2023-04-14T00:58:03.408Z,8.30
2023-04-14T00:59:37.605Z,8.30
2023-04-14T01:01:11.189Z,8.30
2023-04-14T01:02:46.783Z,8.20
2023-04-14T01:04:21.565Z,8.20
2023-04-14T01:05:54.709Z,8.20
2023-04-14T01:07:30.150Z,8.20
2023-04-14T01:09:04.013Z,8.20
2023-04-14T01:10:56.525Z,8.10
2023-04-14T01:12:45.494Z,8.20
2023-04-14T01:14:29.462Z,8.10
2023-04-14T01:16:06.806Z,8.10
2023-04-14T01:17:46.642Z,8.10
2023-04-14T01:19:38.204Z,8.10
2023-04-14T01:21:17.259Z,8.10
2023-04-14T01:22:59.521Z,8.10
2023-04-14T01:24:46.566Z,8.10
2023-04-14T01:26:22.513Z,8.10
2023-04-14T01:28:14.986Z,8.10
2023-04-14T01:30:10.720Z,8.10
2023-04-14T01:31:49.141Z,8.10
2023-04-14T01:33:25.426Z,8.10
2023-04-14T01:35:03.043Z,8.10
2023-04-14T01:36:42.281Z,8.10
2023-04-14T01:38:24.842Z,8.00
2023-04-14T01:40:02.943Z,8.10
2023-04-14T01:41:44.671Z,8.00
2023-04-14T01:43:23.711Z,8.00
2023-04-14T01:45:03.527Z,8.10
2023-04-14T01:46:37.579Z,8.00
2023-04-14T01:48:13.416Z,8.00
2023-04-14T01:49:47.473Z,8.00
2023-04-14T01:51:22.380Z,8.10
2023-04-14T01:52:56.748Z,8.10
2023-04-14T01:54:32.752Z,8.10
2023-04-14T01:56:08.518Z,8.10
2023-04-14T01:57:42.329Z,8.00
2023-04-14T01:59:15.593Z,8.10
2023-04-14T02:00:50.596Z,8.10
2023-04-14T02:02:25.446Z,8.10
2023-04-14T02:04:02.812Z,8.00
2023-04-14T02:05:39.612Z,8.00
2023-04-14T02:07:13.422Z,8.00
2023-04-14T02:08:47.594Z,8.00
2023-04-14T02:10:21.585Z,8.00
2023-04-14T02:11:55.736Z,8.00
2023-04-14T02:13:31.106Z,7.90
2023-04-14T02:15:03.991Z,7.90
2023-04-14T02:16:39.035Z,7.80
2023-04-14T02:18:13.332Z,7.80
2023-04-14T02:19:49.433Z,7.80
2023-04-14T02:21:24.608Z,7.70
2023-04-14T02:22:57.825Z,7.70
2023-04-14T02:24:31.740Z,7.70
2023-04-14T02:26:12.993Z,7.70
2023-04-14T02:27:51.193Z,7.70
2023-04-14T02:29:26.240Z,7.70
2023-04-14T02:31:02.570Z,7.70
2023-04-14T02:32:36.078Z,7.70
2023-04-14T02:34:11.542Z,7.70
2023-04-14T02:35:49.011Z,7.70
2023-04-14T02:37:26.631Z,7.70
2023-04-14T02:39:01.905Z,7.70
2023-04-14T02:40:39.701Z,7.60
2023-04-14T02:42:15.885Z,7.60
2023-04-14T02:43:53.205Z,7.60
2023-04-14T02:45:31.558Z,7.60
2023-04-14T02:47:07.708Z,7.60
2023-04-14T02:48:47.213Z,7.60
2023-04-14T02:50:23.092Z,7.70
2023-04-14T02:52:11.252Z,7.70
2023-04-14T02:53:44.250Z,7.70
2023-04-14T02:55:25.481Z,7.80
2023-04-14T02:57:01.918Z,7.80
2023-04-14T02:58:37.713Z,7.80
2023-04-14T03:00:12.329Z,7.80
2023-04-14T03:01:51.804Z,7.70
2023-04-14T03:03:27.213Z,7.70
2023-04-14T03:05:01.441Z,7.70
2023-04-14T03:06:41.730Z,7.70
2023-04-14T03:08:17.967Z,7.60
2023-04-14T03:09:54.159Z,7.60
2023-04-14T03:11:28.703Z,7.60
2023-04-14T03:13:03.513Z,7.60
2023-04-14T03:14:37.917Z,7.50
2023-04-14T03:16:12.477Z,7.50
2023-04-14T03:19:29.211Z,7.20
2023-04-14T03:21:02.773Z,7.50
2023-04-14T03:22:40.864Z,7.60
2023-04-14T03:24:24.392Z,7.50
2023-04-14T03:26:01.077Z,7.50
2023-04-14T03:27:36.627Z,7.50
2023-04-14T03:29:11.565Z,7.40
2023-04-14T03:30:50.163Z,7.40
2023-04-14T03:32:25.040Z,7.40
2023-04-14T03:34:00.986Z,7.30
2023-04-14T03:35:41.137Z,7.40
2023-04-14T03:37:18.045Z,7.40
2023-04-14T03:38:55.405Z,7.30
2023-04-14T03:40:31.763Z,7.40
2023-04-14T03:42:08.277Z,7.30
2023-04-14T03:43:42.534Z,7.30
2023-04-14T03:45:21.158Z,7.30
2023-04-14T03:46:55.785Z,7.20
2023-04-14T03:48:34.343Z,7.20
2023-04-14T03:50:10.233Z,7.20
2023-04-14T03:51:44.842Z,7.20
2023-04-14T03:53:20.120Z,7.20
2023-04-14T03:54:58.931Z,7.20
2023-04-14T03:56:38.054Z,7.20
2023-04-14T03:58:13.217Z,7.10
2023-04-14T03:59:50.589Z,7.20
2023-04-14T04:01:27.848Z,7.20
2023-04-14T04:03:02.173Z,7.20
2023-04-14T04:04:36.853Z,7.10
2023-04-14T04:06:09.578Z,7.20
2023-04-14T04:07:44.969Z,7.20
2023-04-14T04:09:20.495Z,7.20
2023-04-14T04:10:54.394Z,7.20
2023-04-14T04:12:29.712Z,7.20
2023-04-14T04:14:05.513Z,7.20
2023-04-14T04:15:41.581Z,7.20
2023-04-14T04:17:20.470Z,7.20
2023-04-14T04:18:55.009Z,7.20
2023-04-14T04:20:33.969Z,7.20
2023-04-14T04:22:10.102Z,7.20
2023-04-14T04:23:47.399Z,7.20
2023-04-14T04:25:21.272Z,7.20
2023-04-14T04:27:12.072Z,7.20
2023-04-14T04:28:52.865Z,7.20
2023-04-14T04:30:28.715Z,7.20
2023-04-14T04:32:02.140Z,7.20
2023-04-14T04:33:36.579Z,7.20
2023-04-14T04:35:11.456Z,7.20
2023-04-14T04:36:46.815Z,7.20
2023-04-14T04:38:19.972Z,7.30
2023-04-14T04:39:53.179Z,7.30
2023-04-14T04:41:27.994Z,7.30
2023-04-14T04:43:02.272Z,7.30
2023-04-14T04:44:37.065Z,7.30
2023-04-14T04:46:24.615Z,7.30
2023-04-14T04:47:58.122Z,7.40
2023-04-14T04:49:31.202Z,7.30
2023-04-14T04:51:09.792Z,7.40
2023-04-14T04:52:41.852Z,7.40
2023-04-14T04:54:15.654Z,7.40
2023-04-14T04:55:48.714Z,7.30
2023-04-14T04:57:21.766Z,7.40
2023-04-14T04:58:54.103Z,7.40
2023-04-14T05:00:28.516Z,7.40
2023-04-14T05:02:01.746Z,7.30
2023-04-14T05:03:34.953Z,7.30
2023-04-14T05:05:10.009Z,7.30
2023-04-14T05:06:42.088Z,7.30
2023-04-14T05:08:15.453Z,7.40
2023-04-14T05:09:48.605Z,7.30
2023-04-14T05:11:21.789Z,7.40
2023-04-14T05:12:54.904Z,7.30
2023-04-14T05:14:27.999Z,7.40
2023-04-14T05:16:07.099Z,7.30
2023-04-14T05:17:40.243Z,7.30
2023-04-14T05:19:13.513Z,7.30
2023-04-14T05:20:46.980Z,7.30
2023-04-14T05:22:20.050Z,7.30
2023-04-14T05:23:53.145Z,7.40
2023-04-14T05:25:26.296Z,7.40
2023-04-14T05:27:13.866Z,7.40
2023-04-14T05:28:47.596Z,7.40
2023-04-14T05:30:20.725Z,7.30
2023-04-14T05:31:55.118Z,7.40
2023-04-14T05:33:28.224Z,7.30
2023-04-14T05:35:02.206Z,7.30
2023-04-14T05:36:35.342Z,7.30
2023-04-14T05:38:08.405Z,7.30
2023-04-14T05:39:41.751Z,7.30
2023-04-14T05:41:16.400Z,7.30
2023-04-14T05:42:49.482Z,7.30
2023-04-14T05:44:23.855Z,7.20
2023-04-14T05:45:58.527Z,7.20
2023-04-14T05:47:33.048Z,7.30
2023-04-14T05:49:06.393Z,7.30
2023-04-14T05:50:39.405Z,7.30
2023-04-14T05:52:12.528Z,7.30
2023-04-14T05:53:45.994Z,7.30
2023-04-14T05:55:19.258Z,7.30
2023-04-14T05:56:52.362Z,7.30
2023-04-14T05:58:26.537Z,7.40
2023-04-14T05:59:59.810Z,7.30
2023-04-14T06:01:32.916Z,7.20
2023-04-14T06:03:08.423Z,7.20
2023-04-14T06:04:41.745Z,7.30
2023-04-14T06:06:14.926Z,7.30
2023-04-14T06:07:47.954Z,7.20
2023-04-14T06:09:21.557Z,7.30
2023-04-14T06:10:54.666Z,7.30
2023-04-14T06:12:28.250Z,7.30
2023-04-14T06:14:02.869Z,7.30
2023-04-14T06:15:36.226Z,7.30
2023-04-14T06:17:09.431Z,7.30
2023-04-14T06:18:43.929Z,7.30
2023-04-14T06:20:18.612Z,7.40
2023-04-14T06:21:51.926Z,7.40
2023-04-14T06:23:26.739Z,7.40
2023-04-14T06:24:59.954Z,7.50
2023-04-14T06:26:33.356Z,7.50
2023-04-14T06:28:06.449Z,7.50
2023-04-14T06:29:39.671Z,7.50
2023-04-14T06:31:14.211Z,7.40
2023-04-14T06:32:48.612Z,7.40
2023-04-14T06:34:23.181Z,7.40
2023-04-14T06:35:56.276Z,7.50
2023-04-14T06:37:29.337Z,7.40
2023-04-14T06:39:02.753Z,7.50
2023-04-14T06:40:36.003Z,7.40
2023-04-14T06:42:12.948Z,7.40
2023-04-14T06:43:46.304Z,7.40
2023-04-14T06:45:19.399Z,7.50
2023-04-14T06:46:52.464Z,7.40
2023-04-14T06:48:26.122Z,7.50
2023-04-14T06:50:00.547Z,7.60
2023-04-14T06:51:34.323Z,7.60
2023-04-14T06:53:09.126Z,7.60
2023-04-14T06:54:42.229Z,7.70
2023-04-14T06:56:15.372Z,7.70
2023-04-14T06:57:48.454Z,7.70
2023-04-14T06:59:25.930Z,7.90
2023-04-14T07:01:00.199Z,7.70
2023-04-14T07:02:33.422Z,7.70
2023-04-14T07:04:07.939Z,7.60
2023-04-14T07:05:42.879Z,7.80
2023-04-14T07:07:16.065Z,7.80
2023-04-14T07:08:49.122Z,7.70
2023-04-14T07:10:22.251Z,7.80
2023-04-14T07:11:55.332Z,7.80
2023-04-14T07:13:28.497Z,7.70
2023-04-14T07:15:01.774Z,7.60
2023-04-14T07:16:34.889Z,7.70
2023-04-14T07:18:12.695Z,7.60
2023-04-14T07:19:46.185Z,7.60
2023-04-14T07:21:20.680Z,7.50
2023-04-14T07:22:53.756Z,7.50
2023-04-14T07:24:26.919Z,7.50
2023-04-14T07:26:01.077Z,7.70
2023-04-14T07:27:34.240Z,7.70
2023-04-14T07:29:07.277Z,7.70
2023-04-14T07:30:40.420Z,7.70
2023-04-14T07:32:13.582Z,7.70
2023-04-14T07:33:46.921Z,7.70
2023-04-14T07:35:20.087Z,7.60
2023-04-14T07:36:54.531Z,7.60
2023-04-14T07:38:27.875Z,7.60
2023-04-14T07:40:01.073Z,7.60
2023-04-14T07:41:34.220Z,7.60
2023-04-14T07:43:07.272Z,7.70
2023-04-14T07:44:40.357Z,7.70
2023-04-14T07:46:13.510Z,7.70
2023-04-14T07:47:46.787Z,7.50
2023-04-14T07:49:20.133Z,7.50
2023-04-14T07:50:53.204Z,7.60
2023-04-14T07:52:27.756Z,7.70
2023-04-14T07:54:01.288Z,7.60
2023-04-14T07:55:34.666Z,7.60
2023-04-14T07:57:09.933Z,7.60
2023-04-14T07:58:43.024Z,7.60
2023-04-14T08:00:16.910Z,7.60
2023-04-14T08:01:50.333Z,7.60
2023-04-14T08:03:23.605Z,7.60
2023-04-14T08:04:58.880Z,7.70
2023-04-14T08:06:32.055Z,7.60
2023-04-14T08:08:07.030Z,7.60
2023-04-14T08:09:40.359Z,7.70
2023-04-14T08:11:13.649Z,7.70
2023-04-14T08:12:46.712Z,7.60
2023-04-14T08:14:21.082Z,7.60
2023-04-14T08:15:54.214Z,7.60
2023-04-14T08:17:27.359Z,7.60
2023-04-14T08:19:00.810Z,7.60
2023-04-14T08:20:34.091Z,7.60
2023-04-14T08:22:07.272Z,7.80
2023-04-14T08:23:41.745Z,7.70
2023-04-14T08:25:15.057Z,7.70
2023-04-14T08:26:48.178Z,7.60
2023-04-14T08:28:21.252Z,7.60
2023-04-14T08:29:54.367Z,7.60
2023-04-14T08:31:27.651Z,7.60
2023-04-14T08:33:00.945Z,7.60
2023-04-14T08:34:34.016Z,7.60
2023-04-14T08:36:08.643Z,7.60
2023-04-14T08:37:41.777Z,7.60
2023-04-14T08:39:16.514Z,7.70
2023-04-14T08:40:52.749Z,7.70
2023-04-14T08:42:26.090Z,7.70
2023-04-14T08:43:59.177Z,7.70
2023-04-14T08:45:33.478Z,7.70
2023-04-14T08:47:08.343Z,7.70
2023-04-14T08:48:43.094Z,7.60
2023-04-14T08:50:19.602Z,7.70
2023-04-14T08:51:53.804Z,7.60
2023-04-14T08:53:27.470Z,7.60
2023-04-14T08:55:04.598Z,7.60
2023-04-14T08:56:39.198Z,7.60
2023-04-14T08:58:12.479Z,7.70
2023-04-14T08:59:46.301Z,7.60
2023-04-14T09:01:19.858Z,7.70
2023-04-14T09:02:54.432Z,7.70
2023-04-14T09:04:29.771Z,7.80
2023-04-14T09:06:03.502Z,7.70
2023-04-14T09:07:37.581Z,7.70
2023-04-14T09:09:10.950Z,7.70
2023-04-14T09:10:46.526Z,7.70
2023-04-14T09:12:23.694Z,7.60
2023-04-14T09:13:59.704Z,7.60
2023-04-14T09:15:33.140Z,7.60
2023-04-14T09:17:06.545Z,7.60
2023-04-14T09:18:40.362Z,7.60
2023-04-14T09:20:35.322Z,7.60
2023-04-14T09:22:08.150Z,7.50
2023-04-14T09:23:41.826Z,7.60
2023-04-14T09:25:16.846Z,7.60
2023-04-14T09:26:52.054Z,7.60
2023-04-14T09:28:25.352Z,7.60
2023-04-14T09:29:59.287Z,7.60
2023-04-14T09:31:32.645Z,7.60
2023-04-14T09:33:07.056Z,7.50
2023-04-14T09:34:53.439Z,7.50
2023-04-14T09:36:29.067Z,7.40
2023-04-14T09:38:02.178Z,7.40
2023-04-14T09:39:36.002Z,7.50
2023-04-14T09:41:09.689Z,7.50
2023-04-14T09:42:47.036Z,7.50
2023-04-14T09:44:20.415Z,7.50
2023-04-14T09:45:53.854Z,7.50
2023-04-14T09:47:28.114Z,7.60
2023-04-14T09:49:03.341Z,7.50
2023-04-14T09:50:57.628Z,7.50
2023-04-14T09:52:41.842Z,7.50
2023-04-14T09:54:24.471Z,7.50
2023-04-14T09:55:59.697Z,7.50
2023-04-14T09:57:32.805Z,7.50
2023-04-14T09:59:08.305Z,7.50
2023-04-14T10:00:41.372Z,7.50
2023-04-14T10:02:14.570Z,7.50
2023-04-14T10:03:48.978Z,7.50
2023-04-14T10:05:23.081Z,7.40
2023-04-14T10:06:59.516Z,7.50
2023-04-14T10:08:38.095Z,7.40
2023-04-14T10:10:13.777Z,7.50
2023-04-14T10:11:46.954Z,7.60
2023-04-14T10:13:20.086Z,7.60
2023-04-14T10:14:54.556Z,7.60
2023-04-14T10:16:28.498Z,7.60
2023-04-14T10:18:01.980Z,7.50
2023-04-14T10:19:36.136Z,7.60
2023-04-14T10:21:09.335Z,7.60
2023-04-14T10:22:42.928Z,7.60
2023-04-14T10:24:16.537Z,7.60
2023-04-14T10:25:51.430Z,7.60
2023-04-14T10:27:24.819Z,7.70
2023-04-14T10:28:58.073Z,7.60
2023-04-14T10:30:32.644Z,7.60
2023-04-14T10:32:08.509Z,7.60
2023-04-14T10:33:42.193Z,7.60
2023-04-14T10:35:18.644Z,7.70
2023-04-14T10:36:52.007Z,7.60
2023-04-14T10:38:42.292Z,7.70
2023-04-14T10:40:15.703Z,7.70
2023-04-14T10:41:50.020Z,7.70
2023-04-14T10:43:28.276Z,7.70
2023-04-14T10:45:06.761Z,7.60
2023-04-14T10:46:45.266Z,7.50
2023-04-14T10:48:18.496Z,7.60
2023-04-14T10:49:51.716Z,7.70
2023-04-14T10:51:36.061Z,7.80
2023-04-14T10:53:09.373Z,7.90
2023-04-14T10:54:53.825Z,7.80
2023-04-14T10:56:26.962Z,7.90
2023-04-14T10:58:07.248Z,7.90
2023-04-14T10:59:43.885Z,7.80
2023-04-14T11:01:27.271Z,7.90
2023-04-14T11:03:05.518Z,7.80
2023-04-14T11:04:59.391Z,7.70
2023-04-14T11:06:55.621Z,7.80
2023-04-14T11:08:35.255Z,7.80
2023-04-14T11:10:32.619Z,7.80
2023-04-14T11:12:23.153Z,7.70
2023-04-14T11:14:11.845Z,7.50
2023-04-14T11:15:52.254Z,7.60
2023-04-14T11:17:30.306Z,7.60
2023-04-14T11:19:04.931Z,7.70
2023-04-14T11:20:41.684Z,7.70
2023-04-14T11:22:14.982Z,7.70
2023-04-14T11:23:49.057Z,7.70
2023-04-14T11:25:24.791Z,7.80
2023-04-14T11:26:59.905Z,7.90
2023-04-14T11:28:34.507Z,8.00
2023-04-14T11:30:09.341Z,7.90
2023-04-14T11:31:42.540Z,7.90
2023-04-14T11:33:16.506Z,7.90
2023-04-14T11:34:51.330Z,8.00
2023-04-14T11:36:26.179Z,7.90
2023-04-14T11:38:01.768Z,7.90
2023-04-14T11:39:36.522Z,7.80
2023-04-14T11:41:10.145Z,7.80
2023-04-14T11:42:46.514Z,7.80
2023-04-14T11:44:20.508Z,7.70
2023-04-14T11:45:53.753Z,7.80
2023-04-14T11:47:27.060Z,7.80
2023-04-14T11:49:00.341Z,7.70
2023-04-14T11:50:38.680Z,7.80
2023-04-14T11:52:11.730Z,7.80
2023-04-14T11:53:45.051Z,7.90
2023-04-14T11:55:18.198Z,8.00
2023-04-14T11:56:51.357Z,7.90
2023-04-14T11:58:25.791Z,7.80
2023-04-14T11:59:58.856Z,7.80
2023-04-14T12:01:32.683Z,7.80
2023-04-14T12:03:07.547Z,7.90
2023-04-14T12:04:41.571Z,7.90
2023-04-14T12:06:16.364Z,8.00
2023-04-14T12:07:50.426Z,8.00
2023-04-14T12:09:23.487Z,8.00
2023-04-14T12:10:57.714Z,8.10
2023-04-14T12:12:34.364Z,8.00
2023-04-14T12:14:07.498Z,8.10
2023-04-14T12:15:42.341Z,7.90
2023-04-14T12:17:16.364Z,8.10
2023-04-14T12:18:49.466Z,8.00
2023-04-14T12:20:23.462Z,7.90
2023-04-14T12:21:57.957Z,8.00
2023-04-14T12:23:31.120Z,8.00
2023-04-14T12:25:12.453Z,8.00
2023-04-14T12:26:46.035Z,7.90
2023-04-14T12:28:19.478Z,8.10
2023-04-14T12:29:53.237Z,8.10
2023-04-14T12:31:31.182Z,8.10
2023-04-14T12:33:11.306Z,8.00
2023-04-14T12:34:55.405Z,8.10
2023-04-14T12:36:45.183Z,8.30
2023-04-14T12:38:28.055Z,8.20
2023-04-14T12:40:06.426Z,8.00
2023-04-14T12:41:41.999Z,8.00
2023-04-14T12:43:16.297Z,8.10
2023-04-14T12:44:56.406Z,8.20
2023-04-14T12:46:31.193Z,8.10
2023-04-14T12:48:04.589Z,8.20
2023-04-14T12:49:38.972Z,8.10
2023-04-14T12:51:13.697Z,8.10
2023-04-14T12:52:46.896Z,8.20
2023-04-14T12:54:22.116Z,8.20
2023-04-14T12:56:08.991Z,8.10
2023-04-14T12:57:42.067Z,8.20
2023-04-14T12:59:15.629Z,8.20
2023-04-14T13:00:50.889Z,8.20
2023-04-14T13:02:24.331Z,8.30
2023-04-14T13:03:57.849Z,8.30
2023-04-14T13:05:31.294Z,8.40
2023-04-14T13:07:04.391Z,8.30
2023-04-14T13:08:37.455Z,8.40
2023-04-14T13:10:12.609Z,8.30
2023-04-14T13:11:45.660Z,8.40
2023-04-14T13:13:18.715Z,8.40
2023-04-14T13:14:52.816Z,8.40
2023-04-14T13:16:26.425Z,8.40
2023-04-14T13:18:00.765Z,8.50
2023-04-14T13:19:33.855Z,8.50
2023-04-14T13:21:07.081Z,8.40
2023-04-14T13:22:40.184Z,8.40
2023-04-14T13:24:13.301Z,8.40
2023-04-14T13:25:48.150Z,8.40
2023-04-14T13:27:21.230Z,8.30
2023-04-14T13:28:54.319Z,8.50
2023-04-14T13:30:27.367Z,8.40
2023-04-14T13:32:00.743Z,8.50
2023-04-14T13:33:34.213Z,8.30
2023-04-14T13:35:07.934Z,8.40
2023-04-14T13:36:41.146Z,8.30
2023-04-14T13:38:14.277Z,8.50
2023-04-14T13:39:47.316Z,8.60
2023-04-14T13:41:21.815Z,8.70
2023-04-14T13:42:54.929Z,8.60
2023-04-14T13:44:28.016Z,8.60
2023-04-14T13:46:01.949Z,8.50
2023-04-14T13:47:35.094Z,8.50
2023-04-14T13:49:08.218Z,8.40
2023-04-14T13:50:41.265Z,8.60
2023-04-14T13:52:14.314Z,8.70
2023-04-14T13:53:47.740Z,8.50
2023-04-14T13:55:21.186Z,8.50
2023-04-14T13:56:56.718Z,8.50
2023-04-14T13:58:30.227Z,8.50
2023-04-14T14:00:03.981Z,8.60
2023-04-14T14:01:38.481Z,8.50
2023-04-14T14:03:12.070Z,8.40
2023-04-14T14:04:45.440Z,8.40
2023-04-14T14:06:19.027Z,8.40
2023-04-14T14:07:52.658Z,8.40
2023-04-14T14:09:25.778Z,8.40
2023-04-14T14:10:58.855Z,8.30
2023-04-14T14:12:33.498Z,8.30
2023-04-14T14:14:06.657Z,8.40
2023-04-14T14:15:39.746Z,8.30
2023-04-14T14:17:12.906Z,8.10
2023-04-14T14:18:46.541Z,8.20
2023-04-14T14:20:19.778Z,8.10
2023-04-14T14:21:52.832Z,8.20
2023-04-14T14:23:26.649Z,8.20
2023-04-14T14:25:15.153Z,8.20
2023-04-14T14:26:52.123Z,8.30
2023-04-14T14:28:26.517Z,8.30
2023-04-14T14:29:59.721Z,8.30
2023-04-14T14:31:32.955Z,8.40
2023-04-14T14:33:06.357Z,8.40
2023-04-14T14:34:40.025Z,8.40
2023-04-14T14:36:14.993Z,8.40
2023-04-14T14:37:48.384Z,8.40
2023-04-14T14:39:21.528Z,8.50
2023-04-14T14:40:54.663Z,8.40
2023-04-14T14:42:28.292Z,8.30
2023-04-14T14:44:02.972Z,8.50
2023-04-14T14:45:36.518Z,8.50
2023-04-14T14:47:09.984Z,8.60
2023-04-14T14:48:43.055Z,8.50
2023-04-14T14:50:16.219Z,8.40
2023-04-14T14:51:49.459Z,8.50
2023-04-14T14:53:22.528Z,8.50
2023-04-14T14:54:55.626Z,8.40
2023-04-14T14:56:28.704Z,8.50
2023-04-14T14:58:01.800Z,8.50
2023-04-14T14:59:37.450Z,8.40
2023-04-14T15:01:10.513Z,8.40
2023-04-14T15:02:43.765Z,8.40
2023-04-14T15:04:17.237Z,8.40
2023-04-14T15:05:52.303Z,8.50
2023-04-14T15:07:25.423Z,8.40
2023-04-14T15:08:58.517Z,8.30
2023-04-14T15:10:31.622Z,8.30
2023-04-14T15:12:04.816Z,8.30
2023-04-14T15:13:38.381Z,8.30
2023-04-14T15:15:13.196Z,8.30
2023-04-14T15:16:46.629Z,8.30
2023-04-14T15:18:20.959Z,8.40
2023-04-14T15:19:54.089Z,8.30
2023-04-14T15:21:27.121Z,8.40
2023-04-14T15:23:00.384Z,8.30
2023-04-14T15:24:33.492Z,8.30
2023-04-14T15:26:06.923Z,8.30
2023-04-14T15:27:40.052Z,8.30
2023-04-14T15:29:13.125Z,8.30
2023-04-14T15:30:47.678Z,8.30
2023-04-14T15:32:25.127Z,8.40
2023-04-14T15:34:00.317Z,8.40
2023-04-14T15:35:38.647Z,8.40
2023-04-14T15:37:11.981Z,8.40
2023-04-14T15:38:47.010Z,8.40
2023-04-14T15:40:20.751Z,8.50
2023-04-14T15:41:53.824Z,8.40
2023-04-14T15:43:27.741Z,8.40
2023-04-14T15:45:00.882Z,8.50
2023-04-14T15:46:35.332Z,8.40
2023-04-14T15:48:08.407Z,8.40
2023-04-14T15:49:41.478Z,8.40
2023-04-14T15:51:17.663Z,8.50
2023-04-14T15:52:50.861Z,8.50
2023-04-14T15:54:24.044Z,8.50
2023-04-14T15:55:57.142Z,8.40
2023-04-14T15:57:30.195Z,8.40
2023-04-14T15:59:03.246Z,8.40
2023-04-14T16:00:36.433Z,8.40
2023-04-14T16:02:11.002Z,8.40
2023-04-14T16:03:44.264Z,8.40
2023-04-14T16:05:17.570Z,8.40
2023-04-14T16:06:50.666Z,8.30
2023-04-14T16:08:23.764Z,8.50
2023-04-14T16:09:56.807Z,8.50
2023-04-14T16:11:30.720Z,8.50
2023-04-14T16:13:03.781Z,8.50
2023-04-14T16:14:37.576Z,8.60
2023-04-14T16:16:10.689Z,8.50
2023-04-14T16:17:45.420Z,8.50
2023-04-14T16:19:18.496Z,8.50
2023-04-14T16:20:51.594Z,8.30
2023-04-14T16:22:24.675Z,8.40
2023-04-14T16:23:57.749Z,8.40
2023-04-14T16:25:29.843Z,8.30
2023-04-14T16:27:02.904Z,8.40
2023-04-14T16:28:36.216Z,8.40
2023-04-14T16:30:09.960Z,8.30
2023-04-14T16:31:43.035Z,8.30
2023-04-14T16:33:17.568Z,8.30
2023-04-14T16:34:50.692Z,8.30
2023-04-14T16:36:25.362Z,8.20
2023-04-14T16:37:58.399Z,8.30
2023-04-14T16:39:31.740Z,8.20
2023-04-14T16:41:04.831Z,8.20
2023-04-14T16:42:37.915Z,8.20
2023-04-14T16:44:11.166Z,8.30
2023-04-14T16:45:44.245Z,8.30
2023-04-14T16:47:17.401Z,8.30
2023-04-14T16:48:52.422Z,8.20
2023-04-14T16:50:25.644Z,8.20
2023-04-14T16:52:00.328Z,8.10
2023-04-14T16:53:33.403Z,8.20
2023-04-14T16:55:07.241Z,8.10
2023-04-14T16:56:40.339Z,8.10
2023-04-14T16:58:13.391Z,8.10
2023-04-14T16:59:48.081Z,8.10
2023-04-14T17:01:21.395Z,8.10
2023-04-14T17:02:54.664Z,8.10
2023-04-14T17:04:29.482Z,8.10
2023-04-14T17:06:02.639Z,8.10
2023-04-14T17:07:35.785Z,8.10
2023-04-14T17:09:08.873Z,8.10
2023-04-14T17:10:42.986Z,8.10
2023-04-14T17:12:16.404Z,8.10
2023-04-14T17:13:49.629Z,8.00
2023-04-14T17:15:22.712Z,8.10
2023-04-14T17:16:55.861Z,8.10
2023-04-14T17:18:29.063Z,8.00
2023-04-14T17:20:04.056Z,8.00
2023-04-14T17:21:38.519Z,8.00
2023-04-14T17:23:12.201Z,8.00
2023-04-14T17:24:46.672Z,8.00
2023-04-14T17:26:19.804Z,8.00
2023-04-14T17:27:53.701Z,8.00
2023-04-14T17:29:26.968Z,8.00
2023-04-14T17:30:59.163Z,8.00
2023-04-14T17:32:33.647Z,8.00
2023-04-14T17:34:10.713Z,8.00
2023-04-14T17:35:45.568Z,8.00
2023-04-14T17:37:18.891Z,8.00
2023-04-14T17:38:52.953Z,8.00
2023-04-14T17:40:26.173Z,8.00
2023-04-14T17:41:59.343Z,8.00
2023-04-14T17:43:32.582Z,8.00
2023-04-14T17:45:06.501Z,8.00
2023-04-14T17:46:39.684Z,7.90
2023-04-14T17:48:12.734Z,7.90
2023-04-14T17:49:45.773Z,7.90
2023-04-14T17:51:24.675Z,7.90
2023-04-14T17:52:59.131Z,7.90
2023-04-14T17:54:32.186Z,7.90
2023-04-14T17:56:06.270Z,7.90
2023-04-14T17:57:39.441Z,7.90
2023-04-14T17:59:12.688Z,7.90
2023-04-14T18:00:46.153Z,7.90
2023-04-14T18:02:19.499Z,7.90
2023-04-14T18:03:52.638Z,7.90
2023-04-14T18:05:25.910Z,7.90
2023-04-14T18:07:00.315Z,7.90
2023-04-14T18:08:33.359Z,7.90
2023-04-14T18:10:08.050Z,7.80
2023-04-14T18:11:41.285Z,7.80
2023-04-14T18:13:14.408Z,7.80
2023-04-14T18:14:47.465Z,7.80
2023-04-14T18:16:20.542Z,7.80
2023-04-14T18:17:53.729Z,7.80
2023-04-14T18:19:27.043Z,7.70
2023-04-14T18:21:00.094Z,7.80
2023-04-14T18:22:34.789Z,7.80
2023-04-14T18:28:58.369Z,7.80
2023-04-14T18:30:31.512Z,7.70
2023-04-14T18:32:04.622Z,7.70
2023-04-14T18:33:37.759Z,7.70
2023-04-14T18:35:11.815Z,7.70
2023-04-14T18:36:45.050Z,7.80
2023-04-14T18:38:19.565Z,7.70
2023-04-14T18:39:52.646Z,7.80
2023-04-14T18:41:25.686Z,7.70
2023-04-14T18:42:59.068Z,7.70
2023-04-14T18:44:32.597Z,7.70
2023-04-14T18:46:05.743Z,7.70
2023-04-14T18:47:39.136Z,7.70
2023-04-14T18:49:13.362Z,7.70
2023-04-14T18:50:46.862Z,7.70
2023-04-14T18:52:19.952Z,7.60
2023-04-14T18:53:54.496Z,7.70
2023-04-14T18:55:41.757Z,7.60
2023-04-14T18:57:19.120Z,7.60
2023-04-14T18:58:52.851Z,7.70
2023-04-14T19:00:29.531Z,7.70
2023-04-14T19:02:02.679Z,7.60
2023-04-14T19:03:36.518Z,7.60
2023-04-14T19:05:10.088Z,7.60
2023-04-14T19:06:43.646Z,7.60
2023-04-14T19:08:16.759Z,7.60
2023-04-14T19:09:51.721Z,7.60
2023-04-14T19:11:25.197Z,7.60
2023-04-14T19:12:58.392Z,7.60
2023-04-14T19:14:31.477Z,7.60
2023-04-14T19:16:08.359Z,7.70
2023-04-14T19:17:41.868Z,7.60
2023-04-14T19:19:15.176Z,7.60
2023-04-14T19:20:49.604Z,7.60
2023-04-14T19:22:22.674Z,7.60
2023-04-14T19:23:57.120Z,7.60
2023-04-14T19:25:31.622Z,7.60
2023-04-14T19:27:08.521Z,7.60
2023-04-14T19:28:42.560Z,7.50
2023-04-14T19:30:15.719Z,7.60
2023-04-14T19:31:48.810Z,7.60
2023-04-14T19:33:21.928Z,7.50
2023-04-14T19:34:55.009Z,7.50
2023-04-14T19:36:29.150Z,7.60
2023-04-14T19:38:02.232Z,7.60
2023-04-14T19:39:35.573Z,7.60
2023-04-14T19:41:10.565Z,7.50
2023-04-14T19:42:43.596Z,7.50
2023-04-14T19:44:17.260Z,7.50
2023-04-14T19:45:52.103Z,7.50
2023-04-14T19:47:25.320Z,7.50
2023-04-14T19:48:58.944Z,7.50
2023-04-14T19:50:32.242Z,7.50
2023-04-14T19:52:05.760Z,7.90
2023-04-14T19:53:38.917Z,7.50
2023-04-14T19:55:12.103Z,7.50
2023-04-14T19:56:46.572Z,7.50
2023-04-14T19:58:21.324Z,7.50
2023-04-14T19:59:55.183Z,7.50
2023-04-14T20:01:28.656Z,7.50
2023-04-14T20:03:00.854Z,7.50
2023-04-14T20:04:34.037Z,7.50
2023-04-14T20:06:07.425Z,7.50
2023-04-14T20:07:40.662Z,7.50
2023-04-14T20:09:13.707Z,7.50
2023-04-14T20:10:50.948Z,7.50
2023-04-14T20:12:25.661Z,7.50
2023-04-14T20:13:58.697Z,7.50
2023-04-14T20:15:31.794Z,7.50
2023-04-14T20:17:05.184Z,7.40
2023-04-14T20:18:38.466Z,7.50
2023-04-14T20:20:13.064Z,7.50
2023-04-14T20:21:46.085Z,7.40
2023-04-14T20:23:19.158Z,7.40
2023-04-14T20:24:52.202Z,7.50
2023-04-14T20:26:25.465Z,7.40
2023-04-14T20:27:59.900Z,7.40
2023-04-14T20:29:33.299Z,7.50
2023-04-14T20:31:06.704Z,7.50
2023-04-14T20:32:40.116Z,7.50
2023-04-14T20:34:13.441Z,7.50
2023-04-14T20:35:46.578Z,7.50
2023-04-14T20:37:19.615Z,7.50
2023-04-14T20:38:53.037Z,7.50
2023-04-14T20:40:26.109Z,7.50
2023-04-14T20:41:59.155Z,7.40
2023-04-14T20:43:34.536Z,7.50
2023-04-14T20:45:09.008Z,7.50
2023-04-14T20:46:42.643Z,7.40
2023-04-14T20:48:15.778Z,7.40
2023-04-14T20:49:48.096Z,7.40
2023-04-14T20:51:21.182Z,7.40
2023-04-14T20:52:54.644Z,7.40
2023-04-14T20:54:28.643Z,7.40
2023-04-14T20:56:01.692Z,7.40
2023-04-14T20:57:34.894Z,7.40
2023-04-14T20:59:10.261Z,7.40
2023-04-14T21:00:43.394Z,7.40
2023-04-14T21:02:15.546Z,7.40
2023-04-14T21:03:48.699Z,7.40
2023-04-14T21:05:22.023Z,7.40
2023-04-14T21:06:55.118Z,7.30
2023-04-14T21:08:29.726Z,7.40